sensor_id;sensor_type;location;lat;lon;timestamp;P1;durP1;ratioP1;P2;durP2;ratioP2
8088;SDS011;57635;49.194;12.104;2023-09-19T00:00:20;3.77;;;3.57;;
8088;SDS011;57635;49.194;12.104;2023-09-19T00:02:52;3.60;;;3.30;;
8088;SDS011;57635;49.194;12.104;2023-09-19T00:05:20;3.17;;;2.97;;
8088;SDS011;57635;49.194;12.104;2023-09-19T00:07:50;4.00;;;3.33;;
8088;SDS011;57635;49.194;12.104;2023-09-19T00:10:20;3.53;;;3.23;;
8088;SDS011;57635;49.194;12.104;2023-09-19T00:12:52;3.63;;;3.33;;
8088;SDS011;57635;49.194;12.104;2023-09-19T00:15:21;3.73;;;3.43;;
8088;SDS011;57635;49.194;12.104;2023-09-19T00:17:49;3.50;;;3.27;;
8088;SDS011;57635;49.194;12.104;2023-09-19T00:20:18;4.33;;;2.90;;
8088;SDS011;57635;49.194;12.104;2023-09-19T00:22:49;4.77;;;3.03;;
8088;SDS011;57635;49.194;12.104;2023-09-19T00:25:16;4.27;;;3.53;;
8088;SDS011;57635;49.194;12.104;2023-09-19T00:27:44;4.13;;;3.53;;
8088;SDS011;57635;49.194;12.104;2023-09-19T00:30:15;3.43;;;3.23;;
8088;SDS011;57635;49.194;12.104;2023-09-19T00:32:46;5.30;;;3.40;;
8088;SDS011;57635;49.194;12.104;2023-09-19T00:35:15;4.30;;;3.90;;
8088;SDS011;57635;49.194;12.104;2023-09-19T00:37:42;3.70;;;3.47;;
8088;SDS011;57635;49.194;12.104;2023-09-19T00:40:10;3.57;;;3.27;;
8088;SDS011;57635;49.194;12.104;2023-09-19T00:42:42;3.80;;;3.50;;
8088;SDS011;57635;49.194;12.104;2023-09-19T00:45:10;4.23;;;3.93;;
8088;SDS011;57635;49.194;12.104;2023-09-19T00:47:40;4.10;;;3.70;;
8088;SDS011;57635;49.194;12.104;2023-09-19T00:50:10;3.73;;;3.43;;
8088;SDS011;57635;49.194;12.104;2023-09-19T00:52:41;4.20;;;3.80;;
8088;SDS011;57635;49.194;12.104;2023-09-19T00:55:10;3.70;;;3.40;;
8088;SDS011;57635;49.194;12.104;2023-09-19T00:57:40;3.53;;;3.30;;
8088;SDS011;57635;49.194;12.104;2023-09-19T01:00:08;3.27;;;2.97;;
8088;SDS011;57635;49.194;12.104;2023-09-19T01:02:42;8.93;;;3.83;;
8088;SDS011;57635;49.194;12.104;2023-09-19T01:05:11;3.63;;;3.33;;
8088;SDS011;57635;49.194;12.104;2023-09-19T01:07:39;5.23;;;3.67;;
8088;SDS011;57635;49.194;12.104;2023-09-19T01:10:08;3.50;;;3.20;;
8088;SDS011;57635;49.194;12.104;2023-09-19T01:12:41;3.70;;;3.40;;
8088;SDS011;57635;49.194;12.104;2023-09-19T01:15:19;3.50;;;3.30;;
8088;SDS011;57635;49.194;12.104;2023-09-19T01:17:53;3.37;;;3.17;;
8088;SDS011;57635;49.194;12.104;2023-09-19T01:20:27;3.70;;;3.40;;
8088;SDS011;57635;49.194;12.104;2023-09-19T01:23:05;3.50;;;3.20;;
8088;SDS011;57635;49.194;12.104;2023-09-19T01:28:39;3.60;;;3.30;;
8088;SDS011;57635;49.194;12.104;2023-09-19T01:31:22;3.40;;;3.10;;
8088;SDS011;57635;49.194;12.104;2023-09-19T01:33:55;3.47;;;3.17;;
8088;SDS011;57635;49.194;12.104;2023-09-19T01:36:28;3.77;;;3.30;;
8088;SDS011;57635;49.194;12.104;2023-09-19T01:38:57;3.53;;;3.23;;
8088;SDS011;57635;49.194;12.104;2023-09-19T01:41:29;3.80;;;3.10;;
8088;SDS011;57635;49.194;12.104;2023-09-19T01:44:00;3.67;;;3.37;;
8088;SDS011;57635;49.194;12.104;2023-09-19T01:46:32;3.60;;;3.30;;
8088;SDS011;57635;49.194;12.104;2023-09-19T01:49:05;3.97;;;3.10;;
8088;SDS011;57635;49.194;12.104;2023-09-19T01:51:37;3.43;;;3.13;;
8088;SDS011;57635;49.194;12.104;2023-09-19T01:54:12;3.53;;;3.23;;
8088;SDS011;57635;49.194;12.104;2023-09-19T01:56:45;4.03;;;3.03;;
8088;SDS011;57635;49.194;12.104;2023-09-19T01:59:21;3.20;;;3.00;;
8088;SDS011;57635;49.194;12.104;2023-09-19T02:01:51;4.37;;;3.73;;
8088;SDS011;57635;49.194;12.104;2023-09-19T02:04:19;3.90;;;3.13;;
8088;SDS011;57635;49.194;12.104;2023-09-19T02:06:47;3.77;;;3.47;;
8088;SDS011;57635;49.194;12.104;2023-09-19T02:09:15;4.20;;;3.80;;
8088;SDS011;57635;49.194;12.104;2023-09-19T02:11:43;4.13;;;3.73;;
8088;SDS011;57635;49.194;12.104;2023-09-19T02:14:10;3.50;;;3.23;;
8088;SDS011;57635;49.194;12.104;2023-09-19T02:16:38;3.47;;;3.17;;
8088;SDS011;57635;49.194;12.104;2023-09-19T02:19:07;6.33;;;3.73;;
8088;SDS011;57635;49.194;12.104;2023-09-19T02:21:35;3.10;;;2.90;;
8088;SDS011;57635;49.194;12.104;2023-09-19T02:24:02;3.80;;;3.10;;
8088;SDS011;57635;49.194;12.104;2023-09-19T02:26:31;3.97;;;3.17;;
8088;SDS011;57635;49.194;12.104;2023-09-19T02:29:02;3.90;;;3.60;;
8088;SDS011;57635;49.194;12.104;2023-09-19T02:31:30;3.20;;;3.00;;
8088;SDS011;57635;49.194;12.104;2023-09-19T02:33:58;3.50;;;3.20;;
8088;SDS011;57635;49.194;12.104;2023-09-19T02:36:28;2.97;;;2.77;;
8088;SDS011;57635;49.194;12.104;2023-09-19T02:38:56;3.20;;;2.90;;
8088;SDS011;57635;49.194;12.104;2023-09-19T02:41:24;3.33;;;3.03;;
8088;SDS011;57635;49.194;12.104;2023-09-19T02:43:51;3.63;;;2.80;;
8088;SDS011;57635;49.194;12.104;2023-09-19T02:46:20;3.20;;;2.90;;
8088;SDS011;57635;49.194;12.104;2023-09-19T02:48:48;3.20;;;2.90;;
8088;SDS011;57635;49.194;12.104;2023-09-19T02:51:15;3.97;;;2.47;;
8088;SDS011;57635;49.194;12.104;2023-09-19T02:53:44;2.80;;;2.60;;
8088;SDS011;57635;49.194;12.104;2023-09-19T02:56:13;4.47;;;2.97;;
8088;SDS011;57635;49.194;12.104;2023-09-19T02:58:42;3.03;;;2.83;;
8088;SDS011;57635;49.194;12.104;2023-09-19T03:01:10;2.70;;;2.50;;
8088;SDS011;57635;49.194;12.104;2023-09-19T03:03:39;4.00;;;3.13;;
8088;SDS011;57635;49.194;12.104;2023-09-19T03:06:07;3.93;;;2.80;;
8088;SDS011;57635;49.194;12.104;2023-09-19T03:08:35;3.50;;;3.20;;
8088;SDS011;57635;49.194;12.104;2023-09-19T03:11:11;3.67;;;3.07;;
8088;SDS011;57635;49.194;12.104;2023-09-19T03:13:41;3.80;;;2.87;;
8088;SDS011;57635;49.194;12.104;2023-09-19T03:16:10;2.80;;;2.60;;
8088;SDS011;57635;49.194;12.104;2023-09-19T03:18:41;5.60;;;3.30;;
8088;SDS011;57635;49.194;12.104;2023-09-19T03:21:09;2.80;;;2.60;;
8088;SDS011;57635;49.194;12.104;2023-09-19T03:23:39;3.23;;;3.03;;
8088;SDS011;57635;49.194;12.104;2023-09-19T03:26:09;2.70;;;2.60;;
8088;SDS011;57635;49.194;12.104;2023-09-19T03:28:40;3.87;;;3.20;;
8088;SDS011;57635;49.194;12.104;2023-09-19T03:31:09;2.97;;;2.77;;
8088;SDS011;57635;49.194;12.104;2023-09-19T03:33:37;2.87;;;2.67;;
8088;SDS011;57635;49.194;12.104;2023-09-19T03:36:05;2.93;;;2.73;;
8088;SDS011;57635;49.194;12.104;2023-09-19T03:38:33;3.57;;;3.27;;
8088;SDS011;57635;49.194;12.104;2023-09-19T03:41:02;4.07;;;2.80;;
8088;SDS011;57635;49.194;12.104;2023-09-19T03:43:31;2.97;;;2.80;;
8088;SDS011;57635;49.194;12.104;2023-09-19T03:46:02;2.93;;;2.73;;
8088;SDS011;57635;49.194;12.104;2023-09-19T03:48:31;2.77;;;2.67;;
8088;SDS011;57635;49.194;12.104;2023-09-19T03:50:59;3.40;;;2.90;;
8088;SDS011;57635;49.194;12.104;2023-09-19T03:53:28;3.03;;;2.83;;
8088;SDS011;57635;49.194;12.104;2023-09-19T03:55:56;3.07;;;2.97;;
8088;SDS011;57635;49.194;12.104;2023-09-19T03:58:23;3.20;;;2.90;;
8088;SDS011;57635;49.194;12.104;2023-09-19T04:00:54;3.77;;;2.90;;
8088;SDS011;57635;49.194;12.104;2023-09-19T04:03:23;2.80;;;2.70;;
8088;SDS011;57635;49.194;12.104;2023-09-19T04:06:01;3.40;;;3.10;;
8088;SDS011;57635;49.194;12.104;2023-09-19T04:08:28;3.27;;;2.87;;
8088;SDS011;57635;49.194;12.104;2023-09-19T04:10:56;2.77;;;2.57;;
8088;SDS011;57635;49.194;12.104;2023-09-19T04:13:25;2.70;;;2.50;;
8088;SDS011;57635;49.194;12.104;2023-09-19T04:15:53;3.77;;;2.93;;
8088;SDS011;57635;49.194;12.104;2023-09-19T04:18:21;2.97;;;2.77;;
8088;SDS011;57635;49.194;12.104;2023-09-19T04:20:51;2.73;;;2.53;;
8088;SDS011;57635;49.194;12.104;2023-09-19T04:23:18;4.00;;;3.30;;
8088;SDS011;57635;49.194;12.104;2023-09-19T04:25:47;3.57;;;3.17;;
8088;SDS011;57635;49.194;12.104;2023-09-19T04:28:15;3.10;;;2.90;;
8088;SDS011;57635;49.194;12.104;2023-09-19T04:30:43;4.13;;;2.60;;
8088;SDS011;57635;49.194;12.104;2023-09-19T04:33:10;3.67;;;3.10;;
8088;SDS011;57635;49.194;12.104;2023-09-19T04:35:40;3.00;;;2.80;;
8088;SDS011;57635;49.194;12.104;2023-09-19T04:38:10;4.00;;;2.80;;
8088;SDS011;57635;49.194;12.104;2023-09-19T04:40:38;3.13;;;2.70;;
8088;SDS011;57635;49.194;12.104;2023-09-19T04:43:06;2.83;;;2.63;;
8088;SDS011;57635;49.194;12.104;2023-09-19T04:45:34;2.87;;;2.67;;
8088;SDS011;57635;49.194;12.104;2023-09-19T04:48:02;2.90;;;2.70;;
8088;SDS011;57635;49.194;12.104;2023-09-19T04:50:30;3.83;;;2.70;;
8088;SDS011;57635;49.194;12.104;2023-09-19T04:52:58;2.60;;;2.50;;
8088;SDS011;57635;49.194;12.104;2023-09-19T04:55:28;3.50;;;3.20;;
8088;SDS011;57635;49.194;12.104;2023-09-19T04:57:56;4.13;;;2.80;;
8088;SDS011;57635;49.194;12.104;2023-09-19T05:00:24;4.03;;;3.03;;
8088;SDS011;57635;49.194;12.104;2023-09-19T05:02:54;6.97;;;2.97;;
8088;SDS011;57635;49.194;12.104;2023-09-19T05:05:23;3.00;;;2.80;;
8088;SDS011;57635;49.194;12.104;2023-09-19T05:07:52;2.70;;;2.57;;
8088;SDS011;57635;49.194;12.104;2023-09-19T05:10:20;3.10;;;2.80;;
8088;SDS011;57635;49.194;12.104;2023-09-19T05:12:50;3.10;;;2.90;;
8088;SDS011;57635;49.194;12.104;2023-09-19T05:15:20;2.53;;;2.40;;
8088;SDS011;57635;49.194;12.104;2023-09-19T05:17:48;2.37;;;2.10;;
8088;SDS011;57635;49.194;12.104;2023-09-19T05:20:22;2.60;;;2.37;;
8088;SDS011;57635;49.194;12.104;2023-09-19T05:22:59;3.27;;;2.40;;
8088;SDS011;57635;49.194;12.104;2023-09-19T05:25:28;2.57;;;2.37;;
8088;SDS011;57635;49.194;12.104;2023-09-19T05:27:58;3.00;;;2.40;;
8088;SDS011;57635;49.194;12.104;2023-09-19T05:30:30;2.47;;;2.27;;
8088;SDS011;57635;49.194;12.104;2023-09-19T05:32:57;2.67;;;2.47;;
8088;SDS011;57635;49.194;12.104;2023-09-19T05:35:25;3.47;;;2.40;;
8088;SDS011;57635;49.194;12.104;2023-09-19T05:37:53;2.70;;;2.50;;
8088;SDS011;57635;49.194;12.104;2023-09-19T05:40:22;2.90;;;2.73;;
8088;SDS011;57635;49.194;12.104;2023-09-19T05:42:50;3.20;;;2.80;;
8088;SDS011;57635;49.194;12.104;2023-09-19T05:45:19;2.67;;;2.47;;
8088;SDS011;57635;49.194;12.104;2023-09-19T05:47:49;3.23;;;3.07;;
8088;SDS011;57635;49.194;12.104;2023-09-19T05:50:17;2.57;;;2.47;;
8088;SDS011;57635;49.194;12.104;2023-09-19T05:52:51;3.27;;;3.07;;
8088;SDS011;57635;49.194;12.104;2023-09-19T05:55:19;2.90;;;2.80;;
8088;SDS011;57635;49.194;12.104;2023-09-19T05:57:49;2.20;;;2.10;;
8088;SDS011;57635;49.194;12.104;2023-09-19T06:00:17;2.37;;;2.23;;
8088;SDS011;57635;49.194;12.104;2023-09-19T06:02:49;1.80;;;1.70;;
8088;SDS011;57635;49.194;12.104;2023-09-19T06:05:18;2.00;;;1.90;;
8088;SDS011;57635;49.194;12.104;2023-09-19T06:07:46;2.50;;;2.40;;
8088;SDS011;57635;49.194;12.104;2023-09-19T06:10:14;2.03;;;1.93;;
8088;SDS011;57635;49.194;12.104;2023-09-19T06:12:43;2.00;;;1.90;;
8088;SDS011;57635;49.194;12.104;2023-09-19T06:15:12;3.50;;;2.27;;
8088;SDS011;57635;49.194;12.104;2023-09-19T06:17:45;2.67;;;2.50;;
8088;SDS011;57635;49.194;12.104;2023-09-19T06:20:14;2.30;;;2.10;;
8088;SDS011;57635;49.194;12.104;2023-09-19T06:22:47;2.60;;;2.00;;
8088;SDS011;57635;49.194;12.104;2023-09-19T06:25:16;2.17;;;1.97;;
8088;SDS011;57635;49.194;12.104;2023-09-19T06:27:46;2.23;;;2.10;;
8088;SDS011;57635;49.194;12.104;2023-09-19T06:30:14;1.67;;;1.57;;
8088;SDS011;57635;49.194;12.104;2023-09-19T06:32:45;2.90;;;2.67;;
8088;SDS011;57635;49.194;12.104;2023-09-19T06:35:13;4.10;;;3.80;;
8088;SDS011;57635;49.194;12.104;2023-09-19T06:37:42;2.20;;;2.10;;
8088;SDS011;57635;49.194;12.104;2023-09-19T06:40:11;2.03;;;1.93;;
8088;SDS011;57635;49.194;12.104;2023-09-19T06:42:40;1.83;;;1.67;;
8088;SDS011;57635;49.194;12.104;2023-09-19T06:45:09;1.97;;;1.73;;
8088;SDS011;57635;49.194;12.104;2023-09-19T06:47:40;1.30;;;1.30;;
8088;SDS011;57635;49.194;12.104;2023-09-19T06:50:09;2.17;;;2.07;;
8088;SDS011;57635;49.194;12.104;2023-09-19T06:52:46;1.97;;;1.83;;
8088;SDS011;57635;49.194;12.104;2023-09-19T06:55:16;2.77;;;1.70;;
8088;SDS011;57635;49.194;12.104;2023-09-19T06:57:45;1.53;;;1.53;;
8088;SDS011;57635;49.194;12.104;2023-09-19T07:00:13;1.40;;;1.30;;
8088;SDS011;57635;49.194;12.104;2023-09-19T07:02:44;1.80;;;1.50;;
8088;SDS011;57635;49.194;12.104;2023-09-19T07:05:13;2.40;;;1.77;;
8088;SDS011;57635;49.194;12.104;2023-09-19T07:07:43;1.60;;;1.50;;
8088;SDS011;57635;49.194;12.104;2023-09-19T07:10:11;1.87;;;1.73;;
8088;SDS011;57635;49.194;12.104;2023-09-19T07:12:39;2.13;;;2.03;;
8088;SDS011;57635;49.194;12.104;2023-09-19T07:15:08;1.73;;;1.60;;
8088;SDS011;57635;49.194;12.104;2023-09-19T07:17:36;1.63;;;1.53;;
8088;SDS011;57635;49.194;12.104;2023-09-19T07:20:04;1.70;;;1.60;;
8088;SDS011;57635;49.194;12.104;2023-09-19T07:22:36;1.67;;;1.57;;
8088;SDS011;57635;49.194;12.104;2023-09-19T07:25:06;1.33;;;1.33;;
8088;SDS011;57635;49.194;12.104;2023-09-19T07:27:39;1.77;;;1.67;;
8088;SDS011;57635;49.194;12.104;2023-09-19T07:30:07;1.63;;;1.53;;
8088;SDS011;57635;49.194;12.104;2023-09-19T07:32:36;1.40;;;1.30;;
8088;SDS011;57635;49.194;12.104;2023-09-19T07:35:05;1.90;;;1.80;;
8088;SDS011;57635;49.194;12.104;2023-09-19T07:37:36;3.17;;;1.27;;
8088;SDS011;57635;49.194;12.104;2023-09-19T07:40:05;2.00;;;1.63;;
8088;SDS011;57635;49.194;12.104;2023-09-19T07:42:35;1.60;;;1.50;;
8088;SDS011;57635;49.194;12.104;2023-09-19T07:45:07;1.50;;;1.40;;
8088;SDS011;57635;49.194;12.104;2023-09-19T07:47:35;2.57;;;1.40;;
8088;SDS011;57635;49.194;12.104;2023-09-19T07:50:04;1.07;;;0.97;;
8088;SDS011;57635;49.194;12.104;2023-09-19T07:52:34;2.57;;;1.77;;
8088;SDS011;57635;49.194;12.104;2023-09-19T07:55:03;1.17;;;1.17;;
8088;SDS011;57635;49.194;12.104;2023-09-19T07:57:35;1.73;;;1.40;;
8088;SDS011;57635;49.194;12.104;2023-09-19T08:00:04;1.63;;;1.57;;
8088;SDS011;57635;49.194;12.104;2023-09-19T08:02:38;4.97;;;4.57;;
8088;SDS011;57635;49.194;12.104;2023-09-19T08:05:07;1.70;;;1.60;;
8088;SDS011;57635;49.194;12.104;2023-09-19T08:07:36;1.47;;;1.37;;
8088;SDS011;57635;49.194;12.104;2023-09-19T08:10:06;1.17;;;1.07;;
8088;SDS011;57635;49.194;12.104;2023-09-19T08:12:39;2.10;;;1.73;;
8088;SDS011;57635;49.194;12.104;2023-09-19T08:15:12;1.80;;;1.70;;
8088;SDS011;57635;49.194;12.104;2023-09-19T08:17:41;2.10;;;1.90;;
8088;SDS011;57635;49.194;12.104;2023-09-19T08:20:09;1.50;;;1.30;;
8088;SDS011;57635;49.194;12.104;2023-09-19T08:22:43;2.70;;;1.50;;
8088;SDS011;57635;49.194;12.104;2023-09-19T08:25:15;1.40;;;1.40;;
8088;SDS011;57635;49.194;12.104;2023-09-19T08:27:45;1.30;;;1.20;;
8088;SDS011;57635;49.194;12.104;2023-09-19T08:30:15;1.40;;;1.40;;
8088;SDS011;57635;49.194;12.104;2023-09-19T08:32:44;1.60;;;1.50;;
8088;SDS011;57635;49.194;12.104;2023-09-19T08:35:12;3.77;;;2.60;;
8088;SDS011;57635;49.194;12.104;2023-09-19T08:37:41;2.33;;;1.47;;
8088;SDS011;57635;49.194;12.104;2023-09-19T08:40:11;1.80;;;1.70;;
8088;SDS011;57635;49.194;12.104;2023-09-19T08:42:50;1.60;;;1.50;;
8088;SDS011;57635;49.194;12.104;2023-09-19T08:45:20;2.70;;;1.50;;
8088;SDS011;57635;49.194;12.104;2023-09-19T08:47:51;2.00;;;1.57;;
8088;SDS011;57635;49.194;12.104;2023-09-19T08:50:26;1.67;;;1.57;;
8088;SDS011;57635;49.194;12.104;2023-09-19T08:52:55;1.60;;;1.50;;
8088;SDS011;57635;49.194;12.104;2023-09-19T08:55:26;2.57;;;2.10;;
8088;SDS011;57635;49.194;12.104;2023-09-19T08:57:59;1.07;;;1.07;;
8088;SDS011;57635;49.194;12.104;2023-09-19T09:00:28;1.63;;;1.53;;
8088;SDS011;57635;49.194;12.104;2023-09-19T09:02:56;1.63;;;1.30;;
8088;SDS011;57635;49.194;12.104;2023-09-19T09:05:25;1.50;;;1.40;;
8088;SDS011;57635;49.194;12.104;2023-09-19T09:07:52;2.30;;;1.40;;
8088;SDS011;57635;49.194;12.104;2023-09-19T09:10:22;1.40;;;1.30;;
8088;SDS011;57635;49.194;12.104;2023-09-19T09:12:51;1.20;;;1.20;;
8088;SDS011;57635;49.194;12.104;2023-09-19T09:15:21;1.53;;;1.43;;
8088;SDS011;57635;49.194;12.104;2023-09-19T09:17:50;1.73;;;1.63;;
8088;SDS011;57635;49.194;12.104;2023-09-19T09:20:19;2.40;;;1.63;;
8088;SDS011;57635;49.194;12.104;2023-09-19T09:22:50;1.27;;;1.27;;
8088;SDS011;57635;49.194;12.104;2023-09-19T09:25:19;1.27;;;1.13;;
8088;SDS011;57635;49.194;12.104;2023-09-19T09:27:59;1.77;;;1.43;;
8088;SDS011;57635;49.194;12.104;2023-09-19T09:30:36;2.07;;;1.63;;
8088;SDS011;57635;49.194;12.104;2023-09-19T09:33:07;1.50;;;1.40;;
8088;SDS011;57635;49.194;12.104;2023-09-19T09:35:46;1.83;;;1.50;;
8088;SDS011;57635;49.194;12.104;2023-09-19T09:38:19;3.60;;;1.60;;
8088;SDS011;57635;49.194;12.104;2023-09-19T09:40:47;1.23;;;1.13;;
8088;SDS011;57635;49.194;12.104;2023-09-19T09:43:26;1.70;;;1.30;;
8088;SDS011;57635;49.194;12.104;2023-09-19T09:48:57;2.97;;;1.57;;
8088;SDS011;57635;49.194;12.104;2023-09-19T09:51:43;1.30;;;1.20;;
8088;SDS011;57635;49.194;12.104;2023-09-19T09:54:14;2.67;;;2.47;;
8088;SDS011;57635;49.194;12.104;2023-09-19T09:56:56;1.50;;;1.40;;
8088;SDS011;57635;49.194;12.104;2023-09-19T10:02:15;1.47;;;1.40;;
8088;SDS011;57635;49.194;12.104;2023-09-19T10:04:49;1.60;;;1.50;;
8088;SDS011;57635;49.194;12.104;2023-09-19T10:07:26;1.30;;;1.23;;
8088;SDS011;57635;49.194;12.104;2023-09-19T10:10:02;2.50;;;1.13;;
8088;SDS011;57635;49.194;12.104;2023-09-19T10:12:42;1.40;;;1.40;;
8088;SDS011;57635;49.194;12.104;2023-09-19T10:15:15;2.87;;;2.53;;
8088;SDS011;57635;49.194;12.104;2023-09-19T10:17:48;1.43;;;1.33;;
8088;SDS011;57635;49.194;12.104;2023-09-19T10:20:16;1.83;;;1.67;;
8088;SDS011;57635;49.194;12.104;2023-09-19T10:23:00;1.60;;;1.50;;
8088;SDS011;57635;49.194;12.104;2023-09-19T10:25:28;1.33;;;1.33;;
8088;SDS011;57635;49.194;12.104;2023-09-19T10:27:57;1.67;;;1.27;;
8088;SDS011;57635;49.194;12.104;2023-09-19T10:30:27;1.00;;;1.00;;
8088;SDS011;57635;49.194;12.104;2023-09-19T10:32:59;1.40;;;1.30;;
8088;SDS011;57635;49.194;12.104;2023-09-19T10:35:28;1.50;;;1.37;;
8088;SDS011;57635;49.194;12.104;2023-09-19T10:37:57;1.53;;;1.23;;
8088;SDS011;57635;49.194;12.104;2023-09-19T10:40:27;1.03;;;0.93;;
8088;SDS011;57635;49.194;12.104;2023-09-19T10:42:59;1.77;;;1.17;;
8088;SDS011;57635;49.194;12.104;2023-09-19T10:45:29;1.10;;;1.10;;
8088;SDS011;57635;49.194;12.104;2023-09-19T10:47:59;1.40;;;1.30;;
8088;SDS011;57635;49.194;12.104;2023-09-19T10:50:30;1.50;;;1.33;;
8088;SDS011;57635;49.194;12.104;2023-09-19T10:53:00;1.10;;;1.10;;
8088;SDS011;57635;49.194;12.104;2023-09-19T10:55:34;1.70;;;1.60;;
8088;SDS011;57635;49.194;12.104;2023-09-19T10:58:03;1.90;;;1.80;;
8088;SDS011;57635;49.194;12.104;2023-09-19T11:00:50;1.67;;;1.57;;
8088;SDS011;57635;49.194;12.104;2023-09-19T11:03:21;2.27;;;2.17;;
8088;SDS011;57635;49.194;12.104;2023-09-19T11:06:04;1.63;;;1.53;;
8088;SDS011;57635;49.194;12.104;2023-09-19T11:08:50;1.67;;;1.57;;
8088;SDS011;57635;49.194;12.104;2023-09-19T11:11:43;1.93;;;1.70;;
8088;SDS011;57635;49.194;12.104;2023-09-19T11:17:29;1.50;;;1.30;;
8088;SDS011;57635;49.194;12.104;2023-09-19T11:20:20;1.60;;;1.50;;
8088;SDS011;57635;49.194;12.104;2023-09-19T11:23:18;2.00;;;1.90;;
8088;SDS011;57635;49.194;12.104;2023-09-19T11:25:49;2.00;;;1.90;;
8088;SDS011;57635;49.194;12.104;2023-09-19T11:28:28;1.77;;;1.67;;
8088;SDS011;57635;49.194;12.104;2023-09-19T11:31:41;1.97;;;1.83;;
8088;SDS011;57635;49.194;12.104;2023-09-19T11:40:37;2.37;;;2.17;;
8088;SDS011;57635;49.194;12.104;2023-09-19T11:46:03;2.33;;;1.93;;
8088;SDS011;57635;49.194;12.104;2023-09-19T11:48:32;1.60;;;1.50;;
8088;SDS011;57635;49.194;12.104;2023-09-19T11:51:19;2.57;;;2.40;;
8088;SDS011;57635;49.194;12.104;2023-09-19T11:53:50;1.60;;;1.50;;
8088;SDS011;57635;49.194;12.104;2023-09-19T11:56:19;2.10;;;2.00;;
8088;SDS011;57635;49.194;12.104;2023-09-19T11:58:48;1.93;;;1.73;;
8088;SDS011;57635;49.194;12.104;2023-09-19T12:01:21;1.80;;;1.70;;
8088;SDS011;57635;49.194;12.104;2023-09-19T12:03:54;1.67;;;1.57;;
8088;SDS011;57635;49.194;12.104;2023-09-19T12:06:26;2.13;;;1.93;;
8088;SDS011;57635;49.194;12.104;2023-09-19T12:08:55;2.80;;;1.80;;
8088;SDS011;57635;49.194;12.104;2023-09-19T12:11:27;2.03;;;1.83;;
8088;SDS011;57635;49.194;12.104;2023-09-19T12:14:00;2.27;;;1.70;;
8088;SDS011;57635;49.194;12.104;2023-09-19T12:16:30;3.00;;;1.70;;
8088;SDS011;57635;49.194;12.104;2023-09-19T12:21:57;2.80;;;2.23;;
8088;SDS011;57635;49.194;12.104;2023-09-19T12:24:29;1.97;;;1.80;;
8088;SDS011;57635;49.194;12.104;2023-09-19T12:27:01;2.17;;;2.07;;
8088;SDS011;57635;49.194;12.104;2023-09-19T12:29:31;2.30;;;1.67;;
8088;SDS011;57635;49.194;12.104;2023-09-19T12:32:00;2.47;;;1.83;;
8088;SDS011;57635;49.194;12.104;2023-09-19T12:34:32;1.80;;;1.70;;
8088;SDS011;57635;49.194;12.104;2023-09-19T12:37:07;2.13;;;1.93;;
8088;SDS011;57635;49.194;12.104;2023-09-19T12:39:39;1.73;;;1.63;;
8088;SDS011;57635;49.194;12.104;2023-09-19T12:42:08;1.73;;;1.63;;
8088;SDS011;57635;49.194;12.104;2023-09-19T12:44:37;2.10;;;1.40;;
8088;SDS011;57635;49.194;12.104;2023-09-19T12:47:08;2.17;;;1.50;;
8088;SDS011;57635;49.194;12.104;2023-09-19T12:50:04;1.70;;;1.20;;
8088;SDS011;57635;49.194;12.104;2023-09-19T12:52:36;2.00;;;1.90;;
8088;SDS011;57635;49.194;12.104;2023-09-19T12:55:04;1.80;;;1.70;;
8088;SDS011;57635;49.194;12.104;2023-09-19T12:57:33;1.17;;;1.17;;
8088;SDS011;57635;49.194;12.104;2023-09-19T13:00:01;1.30;;;1.20;;
8088;SDS011;57635;49.194;12.104;2023-09-19T13:02:28;1.20;;;1.10;;
8088;SDS011;57635;49.194;12.104;2023-09-19T13:04:56;1.50;;;1.30;;
8088;SDS011;57635;49.194;12.104;2023-09-19T13:07:43;2.30;;;1.50;;
8088;SDS011;57635;49.194;12.104;2023-09-19T13:10:13;2.03;;;1.20;;
8088;SDS011;57635;49.194;12.104;2023-09-19T13:12:43;1.30;;;1.30;;
8088;SDS011;57635;49.194;12.104;2023-09-19T13:15:14;1.00;;;1.00;;
8088;SDS011;57635;49.194;12.104;2023-09-19T13:17:46;1.37;;;1.27;;
8088;SDS011;57635;49.194;12.104;2023-09-19T13:20:21;1.53;;;1.43;;
8088;SDS011;57635;49.194;12.104;2023-09-19T13:22:55;1.17;;;1.00;;
8088;SDS011;57635;49.194;12.104;2023-09-19T13:25:26;1.60;;;1.30;;
8088;SDS011;57635;49.194;12.104;2023-09-19T13:27:56;1.60;;;1.20;;
8088;SDS011;57635;49.194;12.104;2023-09-19T13:30:26;1.33;;;1.13;;
8088;SDS011;57635;49.194;12.104;2023-09-19T13:33:04;1.07;;;1.00;;
8088;SDS011;57635;49.194;12.104;2023-09-19T13:35:32;1.90;;;1.57;;
8088;SDS011;57635;49.194;12.104;2023-09-19T13:38:01;2.50;;;1.83;;
8088;SDS011;57635;49.194;12.104;2023-09-19T13:40:29;1.20;;;1.20;;
8088;SDS011;57635;49.194;12.104;2023-09-19T13:43:01;1.37;;;1.27;;
8088;SDS011;57635;49.194;12.104;2023-09-19T13:45:29;1.50;;;1.40;;
8088;SDS011;57635;49.194;12.104;2023-09-19T13:47:57;1.70;;;1.43;;
8088;SDS011;57635;49.194;12.104;2023-09-19T13:50:25;1.30;;;1.20;;
8088;SDS011;57635;49.194;12.104;2023-09-19T13:52:55;1.83;;;1.07;;
8088;SDS011;57635;49.194;12.104;2023-09-19T13:55:25;1.97;;;1.30;;
8088;SDS011;57635;49.194;12.104;2023-09-19T13:57:53;1.60;;;1.50;;
8088;SDS011;57635;49.194;12.104;2023-09-19T14:00:22;3.03;;;1.80;;
8088;SDS011;57635;49.194;12.104;2023-09-19T14:02:50;1.47;;;1.37;;
8088;SDS011;57635;49.194;12.104;2023-09-19T14:05:18;1.03;;;1.03;;
8088;SDS011;57635;49.194;12.104;2023-09-19T14:07:47;1.20;;;1.20;;
8088;SDS011;57635;49.194;12.104;2023-09-19T14:10:15;1.53;;;1.33;;
8088;SDS011;57635;49.194;12.104;2023-09-19T14:12:45;1.20;;;1.10;;
8088;SDS011;57635;49.194;12.104;2023-09-19T14:15:13;1.90;;;1.73;;
8088;SDS011;57635;49.194;12.104;2023-09-19T14:17:41;1.30;;;1.07;;
8088;SDS011;57635;49.194;12.104;2023-09-19T14:20:11;1.80;;;1.30;;
8088;SDS011;57635;49.194;12.104;2023-09-19T14:22:39;1.90;;;1.33;;
8088;SDS011;57635;49.194;12.104;2023-09-19T14:25:07;4.20;;;1.43;;
8088;SDS011;57635;49.194;12.104;2023-09-19T14:27:35;8.87;;;1.77;;
8088;SDS011;57635;49.194;12.104;2023-09-19T14:30:05;1.90;;;1.17;;
8088;SDS011;57635;49.194;12.104;2023-09-19T14:32:33;1.20;;;1.10;;
8088;SDS011;57635;49.194;12.104;2023-09-19T14:35:02;2.40;;;1.30;;
8088;SDS011;57635;49.194;12.104;2023-09-19T14:37:30;2.00;;;1.30;;
8088;SDS011;57635;49.194;12.104;2023-09-19T14:39:57;1.77;;;1.30;;
8088;SDS011;57635;49.194;12.104;2023-09-19T14:42:25;1.37;;;1.27;;
8088;SDS011;57635;49.194;12.104;2023-09-19T14:44:53;1.53;;;1.10;;
8088;SDS011;57635;49.194;12.104;2023-09-19T14:47:23;1.83;;;1.30;;
8088;SDS011;57635;49.194;12.104;2023-09-19T14:49:50;1.60;;;1.50;;
8088;SDS011;57635;49.194;12.104;2023-09-19T14:52:18;1.30;;;1.20;;
8088;SDS011;57635;49.194;12.104;2023-09-19T14:54:46;1.10;;;1.10;;
8088;SDS011;57635;49.194;12.104;2023-09-19T14:57:14;2.37;;;1.30;;
8088;SDS011;57635;49.194;12.104;2023-09-19T14:59:42;1.43;;;1.33;;
8088;SDS011;57635;49.194;12.104;2023-09-19T15:02:10;1.30;;;1.30;;
8088;SDS011;57635;49.194;12.104;2023-09-19T15:04:47;1.70;;;1.60;;
8088;SDS011;57635;49.194;12.104;2023-09-19T15:07:15;1.80;;;1.70;;
8088;SDS011;57635;49.194;12.104;2023-09-19T15:09:44;1.67;;;1.57;;
8088;SDS011;57635;49.194;12.104;2023-09-19T15:12:12;2.63;;;1.63;;
8088;SDS011;57635;49.194;12.104;2023-09-19T15:14:41;1.53;;;1.43;;
8088;SDS011;57635;49.194;12.104;2023-09-19T15:17:09;2.53;;;1.47;;
8088;SDS011;57635;49.194;12.104;2023-09-19T15:19:36;1.87;;;1.77;;
8088;SDS011;57635;49.194;12.104;2023-09-19T15:22:06;1.50;;;1.37;;
8088;SDS011;57635;49.194;12.104;2023-09-19T15:24:33;1.80;;;1.70;;
8088;SDS011;57635;49.194;12.104;2023-09-19T15:27:01;2.03;;;1.70;;
8088;SDS011;57635;49.194;12.104;2023-09-19T15:29:29;2.03;;;1.93;;
8088;SDS011;57635;49.194;12.104;2023-09-19T15:31:57;24.70;;;17.57;;